createdAt,value
2018-09-18T00:13:04.321Z,49.8
2018-09-18T00:28:21.377Z,50.7
2018-09-18T00:43:38.026Z,50.4
2018-09-18T00:58:47.100Z,50
2018-09-18T01:14:12.072Z,49.5
2018-09-18T01:29:28.796Z,49.9
2018-09-18T01:44:46.147Z,50.3
2018-09-18T02:00:02.674Z,51.8
2018-09-18T02:15:18.488Z,50.9
2018-09-18T02:30:36.583Z,51.1
2018-09-18T02:45:53.066Z,50.6
2018-09-18T03:01:09.804Z,52.2
2018-09-18T03:16:19.176Z,52.5
2018-09-18T03:31:43.295Z,52.8
2018-09-18T03:46:59.842Z,52.5
2018-09-18T04:02:16.620Z,52.7
2018-09-18T04:17:20.456Z,53.3
2018-09-18T04:32:50.053Z,54
2018-09-18T04:48:06.849Z,54.7
2018-09-18T05:03:23.319Z,54.8
2018-09-18T05:18:39.945Z,54.7
2018-09-18T05:33:52.782Z,55
2018-09-18T05:49:13.306Z,54
2018-09-18T06:04:30.114Z,54.7
2018-09-18T06:19:47.258Z,51.4
2018-09-18T06:34:57.193Z,46.1
2018-09-18T06:50:20.753Z,42.1
2018-09-18T07:05:38.667Z,40.5
2018-09-18T07:20:42.435Z,38.5
2018-09-18T07:36:14.719Z,38
2018-09-18T07:51:33.138Z,39.2
2018-09-18T08:06:52.618Z,39.4
2018-09-18T08:21:59.700Z,38.8
2018-09-18T08:37:29.992Z,38.6
2018-09-18T08:52:50.201Z,38.2
2018-09-18T09:08:10.540Z,37.6
2018-09-18T09:23:30.833Z,37
2018-09-18T09:38:47.544Z,36.5
2018-09-18T09:54:14.088Z,35
2018-09-18T10:09:35.065Z,33.1
2018-09-18T10:24:59.275Z,31
2018-09-18T10:40:02.698Z,28.8
2018-09-18T10:55:37.842Z,27.2
2018-09-18T11:11:08.325Z,23.7
2018-09-18T11:26:33.863Z,21.8
2018-09-18T11:41:58.588Z,21.2
2018-09-18T11:57:23.275Z,19.6
2018-09-18T12:12:33.541Z,19.1
2018-09-18T12:28:09.234Z,17.8
2018-09-18T12:43:41.864Z,17
2018-09-18T12:59:09.181Z,15.3
2018-09-18T13:14:36.457Z,15.3
2018-09-18T13:30:04.518Z,14.5
2018-09-18T13:45:09.409Z,13.1
2018-09-18T14:09:51.752Z,19.3
2018-09-18T14:25:10.541Z,13.1
2018-09-18T14:40:35.829Z,12.9
2018-09-18T15:41:31.164Z,7.7
2018-09-18T15:56:58.190Z,14.6
2018-09-18T16:12:24.827Z,15.6
2018-09-18T16:27:29.338Z,16.5
2018-09-18T16:43:05.061Z,17.9
2018-09-18T16:58:40.721Z,19.4
2018-09-18T17:14:05.822Z,21.4
2018-09-18T17:29:28.365Z,23.8
2018-09-18T17:44:51.358Z,25.4
2018-09-18T17:59:56.033Z,27.6
2018-09-18T18:15:29.737Z,29.1
2018-09-18T18:30:55.303Z,30.7
2018-09-18T18:46:15.713Z,31.7
2018-09-18T19:01:37.040Z,33.9
2018-09-18T19:16:42.062Z,34.9
2018-09-18T19:32:14.500Z,36.5
2018-09-18T19:47:37.292Z,36.8
2018-09-18T20:02:57.451Z,39
2018-09-18T20:18:16.727Z,40.7
2018-09-18T20:33:22.512Z,41.5
2018-09-18T20:48:54.697Z,42.6
2018-09-18T21:04:14.279Z,44.5
2018-09-18T21:19:33.764Z,46.7
2018-09-18T21:34:53.213Z,46.5
2018-09-18T21:50:01.777Z,47
2018-09-18T22:05:31.269Z,48.8
2018-09-18T22:20:49.965Z,49.8
2018-09-18T22:36:08.521Z,51.5
2018-09-18T22:51:27.253Z,51.7
2018-09-18T23:06:39.499Z,53
2018-09-18T23:22:04.034Z,55
2018-09-18T23:37:22.258Z,55.6
2018-09-18T23:52:40.529Z,56.2
